Time;durP1;ratioP1;P1;durP2;ratioP2;P2;SDS_P1;SDS_P2;PMS_P1;PMS_P2;Temp;Humidity;BMP_temperature;BMP_pressure;BME280_temperature;BME280_humidity;BME280_pressure;Samples;Min_cycle;Max_cycle;Signal;HPM_P1;HPM_P2
2022/11/24 00:00:49;;;;;;;8.43;4.77;;;;;;;12.23;70.43;93569.53;5010419;28;20734;-80
2022/11/24 00:03:17;;;;;;;11.33;5.93;;;;;;;12.23;70.36;93576.44;5011600;28;20671;-80
2022/11/24 00:05:44;;;;;;;9.93;5.77;;;;;;;12.20;70.36;93574.22;5010452;28;20185;-80
2022/11/24 00:08:12;;;;;;;9.47;5.77;;;;;;;12.21;70.26;93584.28;5010053;28;20192;-80
2022/11/24 00:10:38;;;;;;;9.10;5.47;;;;;;;12.20;70.56;93587.03;5010193;28;20227;-81
2022/11/24 00:13:05;;;;;;;6.83;5.80;;;;;;;12.15;70.31;93582.44;5010239;28;20196;-80
2022/11/24 00:15:32;;;;;;;9.80;6.17;;;;;;;12.15;70.50;93584.19;5009799;28;20612;-80
2022/11/24 00:17:59;;;;;;;8.10;5.43;;;;;;;12.04;70.65;93570.03;5010052;28;20192;-80
2022/11/24 00:20:27;;;;;;;7.63;5.77;;;;;;;12.04;70.63;93564.91;5009805;28;20193;-79
2022/11/24 00:22:54;;;;;;;9.10;5.60;;;;;;;12.10;70.57;93582.16;5009715;28;20304;-82
2022/11/24 00:25:21;;;;;;;7.67;5.33;;;;;;;12.07;70.54;93574.03;5009778;28;20236;-79
2022/11/24 00:27:48;;;;;;;9.90;5.57;;;;;;;12.07;70.61;93579.94;5013723;28;20692;-82
2022/11/24 00:30:15;;;;;;;8.20;5.33;;;;;;;12.06;70.61;93580.91;5013614;28;20215;-82
2022/11/24 00:32:42;;;;;;;9.50;5.90;;;;;;;12.04;70.65;93587.97;5013451;28;20260;-81
2022/11/24 00:35:09;;;;;;;9.87;5.80;;;;;;;12.01;70.75;93591.69;5013927;28;20196;-83
2022/11/24 00:37:37;;;;;;;8.07;5.80;;;;;;;11.94;70.68;93583.09;5014212;28;20196;-81
2022/11/24 00:40:05;;;;;;;6.47;4.97;;;;;;;11.98;70.76;93591.22;5013613;28;20195;-82
2022/11/24 00:42:32;;;;;;;10.87;5.70;;;;;;;11.92;70.95;93590.16;5013462;28;20184;-80
2022/11/24 00:44:59;;;;;;;8.40;5.63;;;;;;;11.92;70.75;93592.72;5013163;28;20188;-81
2022/11/24 00:47:27;;;;;;;8.07;4.93;;;;;;;11.91;70.89;93598.00;5013651;28;20216;-81
2022/11/24 00:49:54;;;;;;;8.40;5.20;;;;;;;11.79;70.99;93590.72;5013446;28;20202;-81
2022/11/24 00:52:21;;;;;;;8.93;5.60;;;;;;;11.88;71.04;93613.75;5013068;28;20240;-81
2022/11/24 00:54:49;;;;;;;8.37;5.20;;;;;;;11.85;70.90;93607.19;5013326;28;20196;-83
2022/11/24 00:57:16;;;;;;;8.83;5.10;;;;;;;11.84;70.80;93597.91;5013230;28;20211;-81
2022/11/24 00:59:43;;;;;;;8.07;5.30;;;;;;;11.79;70.89;93589.94;5013388;28;20215;-84
2022/11/24 01:02:10;;;;;;;8.73;5.53;;;;;;;11.80;71.04;93594.06;5013002;28;20200;-80
2022/11/24 01:04:37;;;;;;;9.90;5.50;;;;;;;11.77;71.00;93600.31;5011856;28;20200;-85
2022/11/24 01:07:04;;;;;;;8.43;5.37;;;;;;;11.76;71.06;93608.97;5011170;28;20192;-85
2022/11/24 01:09:31;;;;;;;9.77;5.73;;;;;;;11.74;71.20;93605.81;5012733;28;20207;-85
2022/11/24 01:12:02;;;;;;;10.30;5.87;;;;;;;11.72;71.14;93591.56;5011749;28;20647;-88
2022/11/24 01:14:32;;;;;;;7.27;5.57;;;;;;;11.50;71.16;93565.00;5018539;28;20252;-83
2022/11/24 01:16:59;;;;;;;7.07;5.20;;;;;;;11.47;71.18;93560.22;5026836;28;20266;-85
2022/11/24 01:19:26;;;;;;;8.63;5.60;;;;;;;11.67;71.19;93588.72;5021478;28;20185;-83
2022/11/24 01:21:53;;;;;;;7.93;5.27;;;;;;;11.66;71.09;93599.94;5018485;28;20198;-86
2022/11/24 01:24:20;;;;;;;8.20;5.70;;;;;;;11.64;71.03;93602.66;5016473;28;20239;-86
2022/11/24 01:26:47;;;;;;;7.03;5.07;;;;;;;11.64;71.38;93601.88;5014804;28;20199;-85
2022/11/24 01:29:15;;;;;;;8.67;5.03;;;;;;;11.63;71.29;93602.84;5018256;28;20199;-82
2022/11/24 01:31:42;;;;;;;7.87;5.00;;;;;;;11.56;71.08;93595.84;5017175;28;20234;-82
2022/11/24 01:34:09;;;;;;;11.97;5.80;;;;;;;11.56;71.28;93600.16;5016024;28;20671;-86
2022/11/24 01:36:36;;;;;;;7.00;5.63;;;;;;;11.60;71.29;93603.19;5014443;28;20659;-83
2022/11/24 01:39:03;;;;;;;8.03;5.03;;;;;;;11.55;71.28;93601.91;5015312;28;20664;-84
2022/11/24 01:41:30;;;;;;;6.93;5.90;;;;;;;11.59;71.48;93596.47;5012889;28;20196;-83
2022/11/24 01:43:57;;;;;;;9.83;5.57;;;;;;;11.62;71.32;93608.94;5011788;28;20200;-84
2022/11/24 01:46:30;;;;;;;6.47;4.93;;;;;;;11.63;71.46;93611.31;5010265;28;20699;-83
2022/11/24 01:49:03;;;;;;;5.63;4.70;;;;;;;11.55;71.33;93584.00;5009748;28;20199;-83
2022/11/24 01:51:34;;;;;;;6.93;5.10;;;;;;;11.66;71.28;93605.06;5009776;28;20227;-84
2022/11/24 01:54:07;;;;;;;8.30;5.13;;;;;;;11.65;71.21;93591.44;5009823;28;20258;-83
2022/11/24 01:56:37;;;;;;;6.07;4.60;;;;;;;11.67;71.31;93583.63;5009794;28;20180;-85
2022/11/24 01:59:08;;;;;;;7.50;4.60;;;;;;;11.72;71.10;93599.25;5009813;28;20197;-86
2022/11/24 02:01:36;;;;;;;6.00;4.53;;;;;;;11.75;71.18;93593.78;5009986;28;20292;-86
2022/11/24 02:04:05;;;;;;;9.50;5.17;;;;;;;11.74;70.89;93592.19;5019510;28;20286;-85
2022/11/24 02:06:34;;;;;;;8.17;4.70;;;;;;;11.79;71.17;93600.97;5036121;28;20187;-82
2022/11/24 02:09:06;;;;;;;8.30;4.97;;;;;;;11.83;71.08;93600.63;5032954;28;20196;-82
2022/11/24 02:11:37;;;;;;;6.87;4.50;;;;;;;11.85;71.17;93603.84;5010493;28;20222;-84
2022/11/24 02:14:05;;;;;;;6.90;4.77;;;;;;;11.84;70.95;93608.16;5009285;28;20196;-83
2022/11/24 02:16:35;;;;;;;7.43;4.40;;;;;;;11.88;71.32;93606.84;5009440;28;20180;-84
2022/11/24 02:19:10;;;;;;;7.30;4.53;;;;;;;11.86;71.09;93603.66;5017111;28;20734;-79
2022/11/24 02:21:37;;;;;;;6.53;4.40;;;;;;;11.92;70.93;93622.69;5029052;28;20674;-83
2022/11/24 02:24:14;;;;;;;6.63;4.33;;;;;;;11.93;71.14;93616.59;5028633;28;20199;-82
2022/11/24 02:26:44;;;;;;;5.77;4.43;;;;;;;11.93;70.98;93616.59;5028874;28;20196;-85
2022/11/24 02:29:12;;;;;;;8.60;4.50;;;;;;;11.96;71.04;93626.47;5018308;28;20197;-84
2022/11/24 02:31:45;;;;;;;6.83;4.70;;;;;;;11.97;70.75;93613.50;5011706;28;20323;-85
2022/11/24 02:34:11;;;;;;;7.83;4.53;;;;;;;11.98;71.08;93614.28;5012396;28;20188;-87
2022/11/24 02:36:38;;;;;;;6.17;4.20;;;;;;;11.98;70.95;93609.97;5012184;28;20308;-85
2022/11/24 02:39:09;;;;;;;6.83;4.30;;;;;;;12.00;71.04;93617.47;5011401;28;20199;-87
2022/11/24 02:41:37;;;;;;;6.53;4.63;;;;;;;11.88;70.86;93601.72;5011576;28;20674;-83
2022/11/24 02:44:06;;;;;;;8.27;4.73;;;;;;;11.95;71.04;93607.72;5011138;28;20198;-85
2022/11/24 02:46:32;;;;;;;6.10;4.23;;;;;;;11.98;70.89;93616.84;5011414;28;20627;-84
2022/11/24 02:48:59;;;;;;;7.23;4.37;;;;;;;12.01;70.98;93619.88;5010888;28;20196;-84
2022/11/24 02:51:26;;;;;;;5.77;3.93;;;;;;;12.01;70.92;93621.66;5011548;28;20224;-84
2022/11/24 02:53:53;;;;;;;5.23;4.33;;;;;;;12.00;70.95;93618.28;5018950;28;20314;-86
2022/11/24 02:56:20;;;;;;;7.00;4.40;;;;;;;12.01;70.96;93614.75;5031773;28;20184;-85
2022/11/24 02:58:47;;;;;;;4.83;4.30;;;;;;;12.02;70.78;93616.34;5024191;28;20196;-85
2022/11/24 03:01:15;;;;;;;5.23;4.13;;;;;;;12.04;70.83;93621.28;5012059;28;20223;-86
2022/11/24 03:03:43;;;;;;;4.63;4.13;;;;;;;12.02;70.97;93618.91;5011544;28;20197;-83
2022/11/24 03:06:09;;;;;;;4.80;4.30;;;;;;;12.06;70.92;93627.03;5011216;28;20287;-82
2022/11/24 03:08:36;;;;;;;6.07;4.47;;;;;;;11.85;70.86;93591.03;5019234;28;20191;-82
2022/11/24 03:11:03;;;;;;;5.53;3.53;;;;;;;12.08;71.00;93626.84;5045145;28;20223;-82
2022/11/24 03:13:30;;;;;;;6.17;4.50;;;;;;;11.99;70.74;93616.66;5033518;28;20199;-84
2022/11/24 03:15:57;;;;;;;5.90;4.17;;;;;;;12.11;70.86;93626.53;5021563;28;20200;-83
2022/11/24 03:18:25;;;;;;;7.93;4.43;;;;;;;12.13;71.23;93629.69;5022407;28;20191;-85
2022/11/24 03:20:52;;;;;;;5.50;4.40;;;;;;;12.15;70.75;93627.78;5033520;28;20257;-86
2022/11/24 03:23:19;;;;;;;6.80;4.43;;;;;;;12.16;70.97;93635.28;5033307;28;20207;-84
2022/11/24 03:25:46;;;;;;;7.90;4.80;;;;;;;12.13;71.03;93627.13;5040192;28;20224;-86
2022/11/24 03:28:13;;;;;;;12.60;4.63;;;;;;;12.17;70.85;93641.19;5032508;28;20203;-82
2022/11/24 03:30:42;;;;;;;5.53;4.73;;;;;;;12.15;71.03;93646.50;5041008;28;20206;-79
2022/11/24 03:33:09;;;;;;;6.30;4.57;;;;;;;12.16;71.00;93654.97;5055483;28;20192;-78
2022/11/24 03:35:38;;;;;;;9.70;5.00;;;;;;;12.04;70.87;93645.13;5046232;28;20245;-84
2022/11/24 03:38:04;;;;;;;5.97;5.03;;;;;;;12.15;70.95;93656.75;5046403;28;20203;-84
2022/11/24 03:40:31;;;;;;;7.00;5.33;;;;;;;12.17;70.72;93659.13;5033982;28;20177;-85
2022/11/24 03:42:58;;;;;;;7.67;5.47;;;;;;;12.10;70.66;93642.88;5028569;28;20203;-80
2022/11/24 03:45:25;;;;;;;11.07;7.03;;;;;;;12.19;70.87;93667.47;5027526;28;20191;-83
2022/11/24 03:47:52;;;;;;;11.20;6.30;;;;;;;12.19;70.85;93663.13;5017102;28;20203;-82
2022/11/24 03:50:18;;;;;;;8.53;6.17;;;;;;;12.20;70.69;93662.16;5012190;28;20188;-84
2022/11/24 03:52:47;;;;;;;7.23;6.37;;;;;;;12.21;70.71;93668.06;5013398;28;20231;-84
2022/11/24 03:55:14;;;;;;;12.33;7.43;;;;;;;12.16;70.65;93660.09;5018989;28;20189;-84
2022/11/24 03:57:41;;;;;;;9.43;7.03;;;;;;;12.21;70.66;93665.50;5025629;28;20196;-81
2022/11/24 04:00:10;;;;;;;11.63;7.13;;;;;;;12.23;70.78;93668.72;5029070;28;20207;-86
2022/11/24 04:02:37;;;;;;;12.63;8.03;;;;;;;12.23;70.75;93678.97;5031985;28;20193;-87
2022/11/24 04:05:05;;;;;;;10.60;8.07;;;;;;;12.22;70.81;93685.06;5032194;28;20191;-83
2022/11/24 04:07:31;;;;;;;11.03;7.43;;;;;;;12.21;70.84;93689.38;5030910;28;20192;-83
2022/11/24 04:10:00;;;;;;;11.13;7.33;;;;;;;12.19;70.69;93680.28;5035614;28;20203;-91
2022/11/24 04:12:43;;;;;;;12.23;8.37;;;;;;;12.23;70.72;93694.34;5017051;28;20223;-84
2022/11/24 04:15:12;;;;;;;10.23;7.57;;;;;;;12.23;70.49;93692.56;5016914;28;20208;-86
2022/11/24 04:17:39;;;;;;;12.27;8.73;;;;;;;12.17;70.88;93683.00;5015876;28;20274;-87
2022/11/24 04:20:07;;;;;;;15.73;8.73;;;;;;;12.24;70.64;93699.28;5014101;28;20189;-87
2022/11/24 04:22:34;;;;;;;15.33;9.20;;;;;;;12.25;70.58;93703.44;5013467;28;20192;-88
2022/11/24 04:25:02;;;;;;;11.67;8.10;;;;;;;12.20;70.69;93692.91;5014870;28;20232;-89
2022/11/24 04:27:29;;;;;;;15.60;9.13;;;;;;;12.24;70.65;93701.06;5014257;28;20193;-89
2022/11/24 04:29:57;;;;;;;15.53;9.20;;;;;;;12.18;70.71;93691.50;5017391;28;20265;-85
2022/11/24 04:32:24;;;;;;;11.97;8.63;;;;;;;12.19;70.64;93690.53;5024689;28;20247;-87
2022/11/24 04:34:51;;;;;;;13.73;8.47;;;;;;;12.23;70.67;93707.94;5013538;28;20204;-83
2022/11/24 04:37:18;;;;;;;13.00;8.50;;;;;;;12.21;70.68;93698.81;5011996;28;20207;-87
2022/11/24 04:39:45;;;;;;;14.93;10.30;;;;;;;12.24;70.74;93701.84;5011008;28;20223;-85
2022/11/24 04:42:13;;;;;;;16.37;9.10;;;;;;;12.27;70.60;93701.50;5024594;28;20196;-80
2022/11/24 04:44:40;;;;;;;15.10;9.37;;;;;;;12.09;70.52;93677.13;5033163;28;20924;-85
2022/11/24 04:47:07;;;;;;;14.40;9.77;;;;;;;12.30;70.63;93708.03;5033259;28;20198;-83
2022/11/24 04:49:34;;;;;;;11.60;8.50;;;;;;;12.31;70.79;93707.09;5019651;28;20189;-86
2022/11/24 04:52:00;;;;;;;16.77;10.00;;;;;;;12.19;70.78;93693.88;5014470;28;20219;-81
2022/11/24 04:54:27;;;;;;;15.73;8.77;;;;;;;12.34;70.52;93713.63;5013968;28;20551;-82
2022/11/24 04:56:54;;;;;;;11.30;8.23;;;;;;;12.34;70.82;93714.44;5014068;28;20664;-82
2022/11/24 04:59:22;;;;;;;17.27;8.80;;;;;;;12.34;70.68;93719.56;5014122;28;20288;-84
2022/11/24 05:01:49;;;;;;;13.57;8.20;;;;;;;12.37;70.80;93720.97;5014145;28;20660;-83
2022/11/24 05:04:19;;;;;;;12.77;8.23;;;;;;;12.32;70.72;93708.69;5016195;28;20189;-80
2022/11/24 05:06:46;;;;;;;14.93;7.53;;;;;;;12.07;70.65;93676.53;5051640;28;20210;-78
2022/11/24 05:09:15;;;;;;;12.87;8.37;;;;;;;11.93;70.75;93652.44;5049907;28;20234;-77
2022/11/24 05:11:42;;;;;;;13.30;8.67;;;;;;;12.39;70.74;93724.16;5051926;28;20280;-80
2022/11/24 05:14:09;;;;;;;10.87;8.47;;;;;;;12.20;70.74;93689.56;5041165;28;20196;-80
2022/11/24 05:16:37;;;;;;;10.80;8.00;;;;;;;12.41;70.70;93723.03;5036651;28;20191;-80
2022/11/24 05:19:04;;;;;;;13.80;8.47;;;;;;;12.42;70.78;93726.38;5036836;28;20629;-80
2022/11/24 05:21:31;;;;;;;12.13;7.93;;;;;;;12.41;70.77;93725.59;5036213;28;20196;-79
2022/11/24 05:23:58;;;;;;;16.60;8.73;;;;;;;12.43;70.67;93727.97;5035588;28;20282;-81
2022/11/24 05:26:26;;;;;;;13.03;8.60;;;;;;;12.43;70.87;93723.66;5034628;28;20550;-79
2022/11/24 05:28:53;;;;;;;17.90;9.00;;;;;;;12.44;70.79;93730.38;5033450;28;20207;-78
2022/11/24 05:31:20;;;;;;;14.43;8.87;;;;;;;12.45;70.69;93728.63;5031606;28;20183;-81
2022/11/24 05:33:48;;;;;;;6.67;4.03;;;;;;;12.93;100.00;93734.28;5025699;28;20188;-80
2022/11/24 05:38:55;;;;;;;9.50;4.37;;;;;;;14.36;100.00;93744.88;5031422;28;20192;-79
2022/11/24 05:41:22;;;;;;;8.43;6.17;;;;;;;14.93;100.00;93740.63;5032532;28;20198;-78
2022/11/24 05:43:49;;;;;;;10.03;6.27;;;;;;;15.19;100.00;93740.78;5031289;28;20184;-79
2022/11/24 05:46:16;;;;;;;8.27;5.90;;;;;;;15.26;100.00;93746.78;5032041;28;20211;-80
2022/11/24 05:48:43;;;;;;;9.00;6.30;;;;;;;15.22;97.30;93744.78;5032416;28;20192;-80
2022/11/24 05:51:11;;;;;;;8.10;6.43;;;;;;;15.13;94.46;93756.22;5032294;28;20195;-80
2022/11/24 05:53:38;;;;;;;9.23;6.57;;;;;;;15.02;92.13;93752.38;5030636;28;20210;-82
2022/11/24 05:56:09;;;;;;;8.33;6.50;;;;;;;14.90;89.94;93748.75;5033002;28;20208;-79
2022/11/24 05:58:36;;;;;;;10.10;7.20;;;;;;;14.55;87.89;93718.59;5032807;28;20253;-80
2022/11/24 06:01:08;;;;;;;10.80;6.90;;;;;;;14.67;86.25;93761.81;5032999;28;20195;-80
2022/11/24 06:03:35;;;;;;;11.30;7.67;;;;;;;14.57;85.24;93756.19;5012807;28;20208;-83
2022/11/24 06:06:03;;;;;;;15.73;7.93;;;;;;;14.43;83.96;93761.19;5013419;28;20238;-82
2022/11/24 06:08:31;;;;;;;8.77;7.33;;;;;;;14.37;83.27;93763.69;5012566;28;20190;-81
2022/11/24 06:11:15;;;;;;;7.67;6.87;;;;;;;13.86;82.40;93695.19;5012774;28;20249;-83
2022/11/24 06:13:43;;;;;;;11.37;8.00;;;;;;;14.22;81.88;93767.13;5012915;28;20220;-81
2022/11/24 06:16:10;;;;;;;10.43;7.20;;;;;;;14.16;81.38;93767.03;5012538;28;20780;-83
2022/11/24 06:18:37;;;;;;;11.30;8.43;;;;;;;13.74;81.02;93717.19;5011899;28;20193;-82
2022/11/24 06:21:05;;;;;;;12.10;7.93;;;;;;;14.07;80.79;93774.06;5012522;28;20640;-84
2022/11/24 06:23:33;;;;;;;9.93;7.97;;;;;;;13.92;80.40;93757.91;5011374;28;20197;-82
2022/11/24 06:26:00;;;;;;;9.07;7.40;;;;;;;13.97;80.43;93779.50;5011458;28;20703;-80
2022/11/24 06:28:28;;;;;;;10.60;7.73;;;;;;;13.95;80.07;93784.03;5012017;28;20651;-81
2022/11/24 06:30:55;;;;;;;11.57;8.37;;;;;;;13.93;79.91;93787.75;5011913;28;20184;-81
2022/11/24 06:33:22;;;;;;;11.00;8.10;;;;;;;13.92;79.46;93792.09;5011132;28;20223;-82
2022/11/24 06:35:48;;;;;;;11.53;7.90;;;;;;;13.93;79.10;93798.03;5049184;28;20183;-83
2022/11/24 06:38:16;;;;;;;13.87;8.20;;;;;;;13.92;78.71;93807.53;5048754;28;20678;-83
2022/11/24 06:40:45;;;;;;;12.40;8.77;;;;;;;13.93;78.37;93813.47;5048917;28;20183;-81
2022/11/24 06:43:13;;;;;;;15.13;9.33;;;;;;;13.93;78.01;93816.03;5034592;28;20234;-80
2022/11/24 06:45:40;;;;;;;15.33;9.50;;;;;;;13.92;77.44;93820.38;5025465;28;20321;-81
2022/11/24 06:48:13;;;;;;;12.80;9.60;;;;;;;13.78;77.16;93806.56;5031416;28;20580;-81
2022/11/24 06:50:40;;;;;;;13.30;10.03;;;;;;;13.90;76.87;93832.59;5031214;28;20226;-82
2022/11/24 06:53:06;;;;;;;16.13;8.77;;;;;;;13.90;76.50;93839.50;5030955;28;20226;-80
2022/11/24 06:55:33;;;;;;;15.70;9.57;;;;;;;13.80;76.31;93832.06;5031112;28;20274;-81
2022/11/24 06:58:01;;;;;;;15.00;9.77;;;;;;;13.88;76.19;93852.53;5033427;28;20188;-81
2022/11/24 07:00:30;;;;;;;15.13;9.07;;;;;;;13.79;76.02;93840.78;5044481;28;20192;-82
2022/11/24 07:02:58;;;;;;;16.07;10.53;;;;;;;13.81;75.59;93849.88;5046099;28;20198;-85
2022/11/24 07:05:25;;;;;;;15.73;9.83;;;;;;;13.86;75.32;93862.22;5028106;28;20189;-80
2022/11/24 07:07:52;;;;;;;15.60;10.60;;;;;;;13.84;75.13;93863.34;5012019;28;20202;-80
2022/11/24 07:10:19;;;;;;;18.60;11.27;;;;;;;13.70;75.02;93846.97;5015870;28;20287;-82
2022/11/24 07:12:46;;;;;;;18.13;10.67;;;;;;;13.86;74.85;93876.81;5009820;28;20611;-82
2022/11/24 07:15:14;;;;;;;17.10;11.60;;;;;;;13.85;74.69;93877.78;5010640;28;20196;-82
2022/11/24 07:17:41;;;;;;;22.27;11.77;;;;;;;13.83;74.28;93887.47;5010420;28;20576;-82
2022/11/24 07:20:09;;;;;;;22.87;10.50;;;;;;;13.83;74.21;93887.47;5010675;28;20193;-81
2022/11/24 07:22:36;;;;;;;15.43;10.00;;;;;;;13.81;74.06;93891.00;5011905;28;20576;-83
2022/11/24 07:25:06;;;;;;;15.67;10.07;;;;;;;13.73;73.83;93885.16;5010937;28;20224;-81
2022/11/24 07:27:33;;;;;;;12.50;9.23;;;;;;;13.77;73.68;93894.91;5010584;28;20196;-81
2022/11/24 07:29:59;;;;;;;13.93;9.03;;;;;;;13.80;73.38;93898.88;5010538;28;20195;-82
2022/11/24 07:32:29;;;;;;;15.90;9.87;;;;;;;13.81;73.43;93903.03;5010232;28;20310;-81
2022/11/24 07:34:56;;;;;;;11.77;9.17;;;;;;;13.81;73.09;93900.47;5010986;28;20691;-81
2022/11/24 07:37:22;;;;;;;14.50;8.80;;;;;;;13.84;73.04;93910.41;5014782;28;20203;-81
2022/11/24 07:39:49;;;;;;;14.63;9.23;;;;;;;13.84;72.76;93910.41;5014871;28;20287;-79
2022/11/24 07:42:16;;;;;;;12.10;8.47;;;;;;;13.80;72.73;93906.59;5022951;28;20564;-81
2022/11/24 07:44:43;;;;;;;15.77;8.83;;;;;;;13.65;72.77;93874.97;5034405;28;20271;-82
2022/11/24 07:47:10;;;;;;;16.10;9.43;;;;;;;13.89;72.45;93910.69;5034751;28;20206;-81
2022/11/24 07:49:39;;;;;;;13.53;9.20;;;;;;;13.87;72.36;93911.84;5034302;28;20511;-82
2022/11/24 07:52:07;;;;;;;13.63;8.30;;;;;;;13.94;72.28;93915.28;5033975;28;20180;-81
2022/11/24 07:54:35;;;;;;;11.27;7.60;;;;;;;13.87;72.27;93909.28;5033862;28;20187;-81
2022/11/24 07:57:02;;;;;;;13.53;8.47;;;;;;;13.92;71.96;93927.53;5034335;28;20200;-80
2022/11/24 07:59:31;;;;;;;9.53;7.33;;;;;;;13.63;72.04;93884.63;5033356;28;20879;-80
2022/11/24 08:01:58;;;;;;;12.67;7.93;;;;;;;13.93;71.89;93929.13;5033583;28;20611;-81
2022/11/24 08:04:25;;;;;;;12.53;8.10;;;;;;;13.89;71.85;93930.44;5041264;28;20175;-81
2022/11/24 08:06:53;;;;;;;11.83;7.37;;;;;;;13.80;71.58;93922.03;5034213;28;20206;-79
2022/11/24 08:09:20;;;;;;;9.03;7.20;;;;;;;13.93;71.76;93947.09;5033003;28;20202;-80
2022/11/24 08:11:47;;;;;;;8.50;7.23;;;;;;;13.90;71.60;93948.25;5033495;28;20578;-81
2022/11/24 08:14:14;;;;;;;9.57;6.83;;;;;;;13.88;71.61;93957.91;5033364;28;20223;-80
2022/11/24 08:16:41;;;;;;;9.00;6.57;;;;;;;13.81;71.53;93942.38;5033607;28;20234;-81
2022/11/24 08:19:09;;;;;;;11.53;7.17;;;;;;;13.71;71.25;93936.72;5033244;28;20196;-80
2022/11/24 08:21:36;;;;;;;9.83;7.43;;;;;;;13.80;71.27;93960.56;5033412;28;20196;-80
2022/11/24 08:24:06;;;;;;;7.80;6.67;;;;;;;13.76;71.29;93960.13;5022279;28;20199;-82
2022/11/24 08:26:32;;;;;;;8.40;6.67;;;;;;;13.72;71.21;93964.00;5022480;28;20204;-81
2022/11/24 08:29:00;;;;;;;9.50;6.47;;;;;;;13.69;71.14;93972.09;5018671;28;20691;-82
2022/11/24 08:31:31;;;;;;;9.50;6.33;;;;;;;13.66;71.14;93967.28;5020327;28;20192;-82
2022/11/24 08:33:59;;;;;;;10.43;7.17;;;;;;;13.62;70.94;93970.38;5026091;28;20251;-83
2022/11/24 08:36:26;;;;;;;11.90;7.30;;;;;;;13.60;70.83;93970.56;5029112;28;20651;-80
2022/11/24 08:38:55;;;;;;;11.80;6.73;;;;;;;13.55;70.72;93973.63;5021527;28;20203;-83
2022/11/24 08:41:25;;;;;;;6.47;5.57;;;;;;;13.48;70.83;93975.31;5031123;28;20265;-82
2022/11/24 08:43:51;;;;;;;8.23;6.07;;;;;;;13.48;70.66;93979.66;5016831;28;20196;-82
2022/11/24 08:46:19;;;;;;;10.33;6.13;;;;;;;13.50;70.47;93985.41;5012403;28;20208;-81
2022/11/24 08:48:48;;;;;;;11.07;6.93;;;;;;;13.47;70.53;93989.13;5014612;28;20197;-81
2022/11/24 08:51:17;;;;;;;9.20;6.27;;;;;;;13.42;70.51;93991.38;5012790;28;20559;-81
2022/11/24 08:53:44;;;;;;;7.33;5.60;;;;;;;13.42;70.50;93999.09;5030237;28;20229;-80
2022/11/24 08:56:12;;;;;;;6.23;4.87;;;;;;;13.40;70.43;94000.25;5037822;28;20188;-81
2022/11/24 08:58:41;;;;;;;7.60;5.13;;;;;;;13.38;70.24;94004.75;5026209;28;20195;-82
2022/11/24 09:01:10;;;;;;;5.73;5.10;;;;;;;13.38;70.25;94002.19;5014800;28;20196;-82
2022/11/24 09:03:38;;;;;;;9.03;5.87;;;;;;;13.33;70.08;94005.25;5017363;28;20715;-81
2022/11/24 09:06:05;;;;;;;6.03;4.67;;;;;;;13.33;70.13;94012.97;5016177;28;20211;-80
2022/11/24 09:08:33;;;;;;;6.93;5.00;;;;;;;13.38;69.93;94013.25;5006566;28;20203;-79
2022/11/24 09:11:00;;;;;;;6.33;4.77;;;;;;;13.38;69.83;94018.38;5014988;28;20203;-79
2022/11/24 09:13:27;;;;;;;6.73;5.00;;;;;;;13.38;69.90;94020.16;5019321;28;20227;-81
2022/11/24 09:15:56;;;;;;;7.00;4.57;;;;;;;13.38;69.75;94017.59;5021529;28;20666;-80
2022/11/24 09:18:23;;;;;;;7.27;4.13;;;;;;;13.38;69.42;94027.84;5020859;28;20195;-80
2022/11/24 09:20:50;;;;;;;5.57;3.70;;;;;;;13.06;69.74;93981.66;5021102;28;20204;-81
2022/11/24 09:23:17;;;;;;;6.33;4.20;;;;;;;13.27;69.42;94003.38;5026879;28;20579;-80
2022/11/24 09:25:44;;;;;;;4.00;3.60;;;;;;;13.39;69.42;94027.72;5021539;28;20232;-80
2022/11/24 09:28:11;;;;;;;6.43;4.30;;;;;;;13.41;69.17;94023.19;5022037;28;20192;-82
2022/11/24 09:30:38;;;;;;;5.03;3.53;;;;;;;13.36;69.04;94015.19;5026235;28;20701;-81
2022/11/24 09:33:06;;;;;;;5.80;3.90;;;;;;;13.44;68.90;94028.00;5015873;28;20223;-78
2022/11/24 09:35:37;;;;;;;6.03;3.93;;;;;;;13.48;68.87;94021.53;5017174;28;20196;-81
2022/11/24 09:38:04;;;;;;;5.73;3.53;;;;;;;13.51;68.66;94036.63;5022123;28;20659;-79
2022/11/24 09:40:32;;;;;;;4.90;3.37;;;;;;;13.52;68.46;94029.72;5015214;28;20258;-79
2022/11/24 09:43:03;;;;;;;4.50;3.10;;;;;;;13.59;68.30;94029.81;5027696;28;20686;-80
2022/11/24 09:45:42;;;;;;;4.70;3.30;;;;;;;13.61;68.21;94041.50;5017540;28;20577;-79
2022/11/24 09:48:16;;;;;;;3.97;3.20;;;;;;;13.62;68.09;94037.97;5010716;28;20200;-80
2022/11/24 09:50:46;;;;;;;4.90;2.90;;;;;;;13.62;67.92;94035.41;5018871;28;20676;-81
2022/11/24 09:53:19;;;;;;;2.53;2.33;;;;;;;13.62;67.61;94025.13;5009517;28;20247;-81
2022/11/24 09:55:49;;;;;;;5.23;2.80;;;;;;;13.65;67.39;94036.84;5011573;28;20218;-80
2022/11/24 09:58:35;;;;;;;2.90;2.60;;;;;;;13.53;67.24;94008.97;5026570;28;20194;-79
2022/11/24 10:01:05;;;;;;;4.23;2.60;;;;;;;13.59;67.12;94022.09;5006873;28;20204;-79
2022/11/24 10:03:37;;;;;;;2.93;2.37;;;;;;;13.64;66.95;94038.59;5011057;28;20204;-79
2022/11/24 10:06:13;;;;;;;2.40;2.20;;;;;;;13.65;67.05;94044.53;5010564;28;20215;-79
2022/11/24 10:09:01;;;;;;;5.63;2.70;;;;;;;13.64;66.71;94043.72;5010523;28;20279;-80
2022/11/24 10:11:35;;;;;;;3.87;2.30;;;;;;;13.61;66.65;94046.66;5010783;28;20188;-79
2022/11/24 10:14:20;;;;;;;3.13;2.53;;;;;;;13.60;66.32;94054.50;5009442;28;20255;-79
2022/11/24 10:16:53;;;;;;;4.10;2.30;;;;;;;13.54;66.43;94051.66;5028376;28;20200;-79
2022/11/24 10:19:35;;;;;;;3.80;2.17;;;;;;;13.54;66.28;94058.56;5013147;28;20695;-80
2022/11/24 10:22:19;;;;;;;2.40;2.20;;;;;;;13.47;66.31;94052.50;5019610;28;20196;-83
2022/11/24 10:25:12;;;;;;;2.30;2.10;;;;;;;13.47;66.39;94065.34;5021737;28;20235;-80
2022/11/24 10:27:43;;;;;;;2.87;2.33;;;;;;;13.44;66.29;94061.38;5010424;28;20219;-81
2022/11/24 10:30:16;;;;;;;2.33;2.13;;;;;;;13.40;65.95;94060.13;5010419;28;20620;-81
2022/11/24 10:32:46;;;;;;;2.17;1.97;;;;;;;13.37;65.93;94059.66;5010395;28;20195;-82
2022/11/24 10:35:18;;;;;;;2.03;1.83;;;;;;;13.33;65.92;94054.06;5010642;28;20204;-82
2022/11/24 10:37:54;;;;;;;1.90;1.80;;;;;;;13.31;65.53;94058.56;5007285;28;20226;-81
2022/11/24 10:40:32;;;;;;;2.33;2.03;;;;;;;13.28;65.48;94061.47;5010583;28;20202;-82
2022/11/24 10:42:59;;;;;;;2.43;2.23;;;;;;;13.26;65.56;94055.72;5010109;28;20624;-81
2022/11/24 10:45:28;;;;;;;6.37;2.77;;;;;;;13.22;65.63;94055.25;5010419;28;20196;-81
2022/11/24 10:47:57;;;;;;;3.20;1.80;;;;;;;13.18;65.40;94053.97;5009295;28;20192;-82
2022/11/24 10:50:27;;;;;;;2.33;2.13;;;;;;;13.16;65.24;94049.94;5018569;28;20258;-80
2022/11/24 10:53:02;;;;;;;2.50;2.30;;;;;;;13.06;65.12;94040.69;5023489;28;20196;-81
2022/11/24 10:55:57;;;;;;;2.27;2.07;;;;;;;13.18;65.12;94055.72;5013438;28;20195;-82
2022/11/24 10:58:26;;;;;;;2.30;2.10;;;;;;;13.19;65.18;94057.31;5012184;28;20680;-84
2022/11/24 11:00:53;;;;;;;3.60;2.53;;;;;;;13.07;64.97;94042.28;5027614;28;20206;-82
2022/11/24 11:03:22;;;;;;;2.17;2.07;;;;;;;13.25;64.97;94054.09;5025781;28;20200;-80
2022/11/24 11:05:53;;;;;;;2.17;2.03;;;;;;;13.24;64.74;94043.03;5021930;28;20272;-79
2022/11/24 11:08:26;;;;;;;2.37;2.27;;;;;;;13.35;64.63;94056.47;5022383;28;20195;-84
2022/11/24 11:11:13;;;;;;;2.50;2.30;;;;;;;13.37;64.66;94057.88;5009009;28;20216;-81
2022/11/24 11:13:50;;;;;;;2.57;2.20;;;;;;;13.39;64.35;94055.16;5010307;28;20223;-82
2022/11/24 11:16:32;;;;;;;2.70;2.50;;;;;;;13.41;64.40;94059.13;5010029;28;20183;-86
2022/11/24 11:19:02;;;;;;;2.93;2.73;;;;;;;13.38;64.16;94051.78;5010924;28;20215;-85
2022/11/24 11:21:33;;;;;;;2.90;2.40;;;;;;;13.47;64.20;94070.50;5011304;28;20200;-86
2022/11/24 11:24:03;;;;;;;2.87;2.67;;;;;;;13.49;64.27;94066.00;5011574;28;20632;-87
2022/11/24 11:26:36;;;;;;;3.13;2.77;;;;;;;13.47;64.01;94053.34;5013789;28;20188;-80
2022/11/24 11:29:15;;;;;;;3.10;2.80;;;;;;;13.53;63.99;94060.34;5011501;28;20207;-85
2022/11/24 11:31:42;;;;;;;2.97;2.77;;;;;;;13.55;63.58;94060.97;5008988;28;20283;-80
2022/11/24 11:34:19;;;;;;;3.40;2.77;;;;;;;13.42;63.54;94047.09;5017442;28;20215;-82
2022/11/24 11:36:56;;;;;;;4.87;3.37;;;;;;;13.58;63.79;94067.53;5007135;28;20207;-81
2022/11/24 11:39:28;;;;;;;3.13;2.83;;;;;;;13.58;63.61;94070.09;5013969;28;20192;-82